sensor_id;sensor_type;location;lat;lon;timestamp;temperature;humidity
69543;SHT31;56762;49.494;11.768;2023-05-21T00:01:42;14.33;84.83
69543;SHT31;56762;49.494;11.768;2023-05-21T00:04:15;14.29;85.17
69543;SHT31;56762;49.494;11.768;2023-05-21T00:06:43;14.28;85.16
69543;SHT31;56762;49.494;11.768;2023-05-21T00:09:11;14.29;85.31
69543;SHT31;56762;49.494;11.768;2023-05-21T00:11:40;14.26;84.88
69543;SHT31;56762;49.494;11.768;2023-05-21T00:14:12;14.28;84.64
69543;SHT31;56762;49.494;11.768;2023-05-21T00:16:41;14.32;84.08
69543;SHT31;56762;49.494;11.768;2023-05-21T00:19:10;14.35;83.88
69543;SHT31;56762;49.494;11.768;2023-05-21T00:21:40;14.39;83.61
69543;SHT31;56762;49.494;11.768;2023-05-21T00:24:08;14.43;83.39
69543;SHT31;56762;49.494;11.768;2023-05-21T00:26:37;14.42;83.28
69543;SHT31;56762;49.494;11.768;2023-05-21T00:29:05;14.45;83.44
69543;SHT31;56762;49.494;11.768;2023-05-21T00:31:33;14.50;83.05
69543;SHT31;56762;49.494;11.768;2023-05-21T00:34:01;14.53;82.98
69543;SHT31;56762;49.494;11.768;2023-05-21T00:36:29;14.50;82.94
69543;SHT31;56762;49.494;11.768;2023-05-21T00:39:03;14.56;82.86
69543;SHT31;56762;49.494;11.768;2023-05-21T00:41:31;14.60;82.70
69543;SHT31;56762;49.494;11.768;2023-05-21T00:44:00;14.66;82.71
69543;SHT31;56762;49.494;11.768;2023-05-21T00:46:29;14.73;82.37
69543;SHT31;56762;49.494;11.768;2023-05-21T00:48:57;14.75;82.33
69543;SHT31;56762;49.494;11.768;2023-05-21T00:51:27;14.73;82.45
69543;SHT31;56762;49.494;11.768;2023-05-21T00:53:57;14.75;82.43
69543;SHT31;56762;49.494;11.768;2023-05-21T00:56:27;14.72;82.56
69543;SHT31;56762;49.494;11.768;2023-05-21T00:58:55;14.75;82.40
69543;SHT31;56762;49.494;11.768;2023-05-21T01:01:24;14.70;82.61
69543;SHT31;56762;49.494;11.768;2023-05-21T01:03:53;14.70;82.77
69543;SHT31;56762;49.494;11.768;2023-05-21T01:06:23;14.72;82.71
69543;SHT31;56762;49.494;11.768;2023-05-21T01:08:51;14.80;82.57
69543;SHT31;56762;49.494;11.768;2023-05-21T01:11:19;14.75;82.54
69543;SHT31;56762;49.494;11.768;2023-05-21T01:13:49;14.76;82.79
69543;SHT31;56762;49.494;11.768;2023-05-21T01:16:17;14.73;82.83
69543;SHT31;56762;49.494;11.768;2023-05-21T01:18:46;14.70;83.05
69543;SHT31;56762;49.494;11.768;2023-05-21T01:21:15;14.75;83.02
69543;SHT31;56762;49.494;11.768;2023-05-21T01:23:46;14.76;83.18
69543;SHT31;56762;49.494;11.768;2023-05-21T01:26:14;14.76;83.22
69543;SHT31;56762;49.494;11.768;2023-05-21T01:28:42;14.80;83.09
69543;SHT31;56762;49.494;11.768;2023-05-21T01:31:18;14.79;83.19
69543;SHT31;56762;49.494;11.768;2023-05-21T01:33:51;14.81;83.27
69543;SHT31;56762;49.494;11.768;2023-05-21T01:36:24;14.79;83.50
69543;SHT31;56762;49.494;11.768;2023-05-21T01:39:01;14.79;83.67
69543;SHT31;56762;49.494;11.768;2023-05-21T01:41:37;14.80;83.61
69543;SHT31;56762;49.494;11.768;2023-05-21T01:44:08;14.81;83.66
69543;SHT31;56762;49.494;11.768;2023-05-21T01:46:37;14.83;83.49
69543;SHT31;56762;49.494;11.768;2023-05-21T01:49:06;14.84;83.41
69543;SHT31;56762;49.494;11.768;2023-05-21T01:51:34;14.84;83.58
69543;SHT31;56762;49.494;11.768;2023-05-21T01:54:04;14.86;83.56
69543;SHT31;56762;49.494;11.768;2023-05-21T01:56:32;14.90;83.60
69543;SHT31;56762;49.494;11.768;2023-05-21T01:59:02;14.83;83.58
69543;SHT31;56762;49.494;11.768;2023-05-21T02:01:30;14.79;83.53
69543;SHT31;56762;49.494;11.768;2023-05-21T02:03:59;14.79;83.74
69543;SHT31;56762;49.494;11.768;2023-05-21T02:06:27;14.77;84.16
69543;SHT31;56762;49.494;11.768;2023-05-21T02:08:57;14.72;84.25
69543;SHT31;56762;49.494;11.768;2023-05-21T02:11:26;14.67;84.41
69543;SHT31;56762;49.494;11.768;2023-05-21T02:13:55;14.66;84.73
69543;SHT31;56762;49.494;11.768;2023-05-21T02:16:24;14.66;84.86
69543;SHT31;56762;49.494;11.768;2023-05-21T02:18:52;14.65;85.07
69543;SHT31;56762;49.494;11.768;2023-05-21T02:21:23;14.62;85.08
69543;SHT31;56762;49.494;11.768;2023-05-21T02:23:51;14.60;85.08
69543;SHT31;56762;49.494;11.768;2023-05-21T02:26:19;14.58;85.05
69543;SHT31;56762;49.494;11.768;2023-05-21T02:28:49;14.56;85.29
69543;SHT31;56762;49.494;11.768;2023-05-21T02:31:18;14.67;85.27
69543;SHT31;56762;49.494;11.768;2023-05-21T02:33:46;14.60;85.33
69543;SHT31;56762;49.494;11.768;2023-05-21T02:36:14;14.56;85.53
69543;SHT31;56762;49.494;11.768;2023-05-21T02:38:44;14.50;85.89
69543;SHT31;56762;49.494;11.768;2023-05-21T02:41:13;14.50;85.73
69543;SHT31;56762;49.494;11.768;2023-05-21T02:43:41;14.49;85.90
69543;SHT31;56762;49.494;11.768;2023-05-21T02:46:10;14.49;86.02
69543;SHT31;56762;49.494;11.768;2023-05-21T02:48:39;14.53;85.97
69543;SHT31;56762;49.494;11.768;2023-05-21T02:51:07;14.52;85.98
69543;SHT31;56762;49.494;11.768;2023-05-21T02:53:35;14.53;85.94
69543;SHT31;56762;49.494;11.768;2023-05-21T02:56:03;14.52;86.09
69543;SHT31;56762;49.494;11.768;2023-05-21T02:58:31;14.50;86.10
69543;SHT31;56762;49.494;11.768;2023-05-21T03:00:59;14.49;86.07
69543;SHT31;56762;49.494;11.768;2023-05-21T03:03:28;14.49;86.29
69543;SHT31;56762;49.494;11.768;2023-05-21T03:05:58;14.46;86.33
69543;SHT31;56762;49.494;11.768;2023-05-21T03:08:26;14.40;86.23
69543;SHT31;56762;49.494;11.768;2023-05-21T03:10:54;14.35;86.38
69543;SHT31;56762;49.494;11.768;2023-05-21T03:13:22;14.30;86.41
69543;SHT31;56762;49.494;11.768;2023-05-21T03:15:50;14.25;86.53
69543;SHT31;56762;49.494;11.768;2023-05-21T03:18:22;14.25;86.49
69543;SHT31;56762;49.494;11.768;2023-05-21T03:20:51;14.22;86.54
69543;SHT31;56762;49.494;11.768;2023-05-21T03:23:19;14.18;86.70
69543;SHT31;56762;49.494;11.768;2023-05-21T03:25:47;14.19;86.93
69543;SHT31;56762;49.494;11.768;2023-05-21T03:28:17;14.21;86.94
69543;SHT31;56762;49.494;11.768;2023-05-21T03:30:44;14.21;87.21
69543;SHT31;56762;49.494;11.768;2023-05-21T03:33:15;14.26;86.91
69543;SHT31;56762;49.494;11.768;2023-05-21T03:35:43;14.24;87.03
69543;SHT31;56762;49.494;11.768;2023-05-21T03:38:13;14.24;87.07
69543;SHT31;56762;49.494;11.768;2023-05-21T03:40:41;14.24;86.77
69543;SHT31;56762;49.494;11.768;2023-05-21T03:43:09;14.26;86.75
69543;SHT31;56762;49.494;11.768;2023-05-21T03:45:36;14.29;86.81
69543;SHT31;56762;49.494;11.768;2023-05-21T03:48:08;14.28;86.77
69543;SHT31;56762;49.494;11.768;2023-05-21T03:50:36;14.29;86.81
69543;SHT31;56762;49.494;11.768;2023-05-21T03:53:04;14.32;86.57
69543;SHT31;56762;49.494;11.768;2023-05-21T03:55:33;14.36;86.42
69543;SHT31;56762;49.494;11.768;2023-05-21T03:58:02;14.35;86.32
69543;SHT31;56762;49.494;11.768;2023-05-21T04:00:30;14.35;86.38
69543;SHT31;56762;49.494;11.768;2023-05-21T04:02:59;14.35;86.24
69543;SHT31;56762;49.494;11.768;2023-05-21T04:05:27;14.32;86.30
69543;SHT31;56762;49.494;11.768;2023-05-21T04:07:55;14.35;86.22
69543;SHT31;56762;49.494;11.768;2023-05-21T04:10:24;14.35;86.17
69543;SHT31;56762;49.494;11.768;2023-05-21T04:12:53;14.38;86.16
69543;SHT31;56762;49.494;11.768;2023-05-21T04:15:21;14.36;86.13
69543;SHT31;56762;49.494;11.768;2023-05-21T04:17:51;14.38;86.25
69543;SHT31;56762;49.494;11.768;2023-05-21T04:20:20;14.40;85.87
69543;SHT31;56762;49.494;11.768;2023-05-21T04:22:48;14.45;85.74
69543;SHT31;56762;49.494;11.768;2023-05-21T04:25:17;14.42;85.76
69543;SHT31;56762;49.494;11.768;2023-05-21T04:27:45;14.49;85.56
69543;SHT31;56762;49.494;11.768;2023-05-21T04:30:15;14.48;85.55
69543;SHT31;56762;49.494;11.768;2023-05-21T04:32:45;14.46;85.56
69543;SHT31;56762;49.494;11.768;2023-05-21T04:35:14;14.45;85.66
69543;SHT31;56762;49.494;11.768;2023-05-21T04:37:41;14.45;85.62
69543;SHT31;56762;49.494;11.768;2023-05-21T04:40:11;14.50;85.25
69543;SHT31;56762;49.494;11.768;2023-05-21T04:42:44;14.65;84.84
69543;SHT31;56762;49.494;11.768;2023-05-21T04:45:13;14.62;84.93
69543;SHT31;56762;49.494;11.768;2023-05-21T04:47:44;14.62;84.91
69543;SHT31;56762;49.494;11.768;2023-05-21T04:50:13;14.65;84.73
69543;SHT31;56762;49.494;11.768;2023-05-21T04:52:42;14.66;84.63
69543;SHT31;56762;49.494;11.768;2023-05-21T04:55:11;14.66;84.22
69543;SHT31;56762;49.494;11.768;2023-05-21T04:57:39;14.65;84.42
69543;SHT31;56762;49.494;11.768;2023-05-21T05:00:07;14.67;84.39
69543;SHT31;56762;49.494;11.768;2023-05-21T05:02:36;14.67;83.96
69543;SHT31;56762;49.494;11.768;2023-05-21T05:05:05;14.75;84.01
69543;SHT31;56762;49.494;11.768;2023-05-21T05:07:33;14.75;84.21
69543;SHT31;56762;49.494;11.768;2023-05-21T05:10:04;14.80;84.01
69543;SHT31;56762;49.494;11.768;2023-05-21T05:12:32;14.89;83.76
69543;SHT31;56762;49.494;11.768;2023-05-21T05:15:00;14.86;83.42
69543;SHT31;56762;49.494;11.768;2023-05-21T05:17:28;14.87;83.48
69543;SHT31;56762;49.494;11.768;2023-05-21T05:19:56;14.91;83.31
69543;SHT31;56762;49.494;11.768;2023-05-21T05:22:26;14.97;83.41
69543;SHT31;56762;49.494;11.768;2023-05-21T05:24:54;15.00;83.61
69543;SHT31;56762;49.494;11.768;2023-05-21T05:27:22;15.00;83.52
69543;SHT31;56762;49.494;11.768;2023-05-21T05:29:50;15.07;83.18
69543;SHT31;56762;49.494;11.768;2023-05-21T05:32:18;15.07;83.18
69543;SHT31;56762;49.494;11.768;2023-05-21T05:34:46;15.14;82.98
69543;SHT31;56762;49.494;11.768;2023-05-21T05:37:14;15.18;82.72
69543;SHT31;56762;49.494;11.768;2023-05-21T05:39:43;15.21;82.45
69543;SHT31;56762;49.494;11.768;2023-05-21T05:42:12;15.26;82.15
69543;SHT31;56762;49.494;11.768;2023-05-21T05:44:39;15.27;82.31
69543;SHT31;56762;49.494;11.768;2023-05-21T05:47:07;15.32;82.29
69543;SHT31;56762;49.494;11.768;2023-05-21T05:49:36;15.41;82.06
69543;SHT31;56762;49.494;11.768;2023-05-21T05:52:05;15.47;81.88
69543;SHT31;56762;49.494;11.768;2023-05-21T05:54:33;15.52;81.61
69543;SHT31;56762;49.494;11.768;2023-05-21T05:57:02;15.57;81.48
69543;SHT31;56762;49.494;11.768;2023-05-21T05:59:30;15.65;80.96
69543;SHT31;56762;49.494;11.768;2023-05-21T06:02:00;15.69;81.06
69543;SHT31;56762;49.494;11.768;2023-05-21T06:04:28;15.73;80.68
69543;SHT31;56762;49.494;11.768;2023-05-21T06:06:56;15.82;80.22
69543;SHT31;56762;49.494;11.768;2023-05-21T06:09:25;15.86;80.38
69543;SHT31;56762;49.494;11.768;2023-05-21T06:11:54;15.95;80.18
69543;SHT31;56762;49.494;11.768;2023-05-21T06:14:23;15.99;79.70
69543;SHT31;56762;49.494;11.768;2023-05-21T06:16:51;16.02;79.39
69543;SHT31;56762;49.494;11.768;2023-05-21T06:19:19;16.12;79.39
69543;SHT31;56762;49.494;11.768;2023-05-21T06:21:47;16.21;79.60
69543;SHT31;56762;49.494;11.768;2023-05-21T06:24:15;16.33;78.59
69543;SHT31;56762;49.494;11.768;2023-05-21T06:26:43;16.37;78.80
69543;SHT31;56762;49.494;11.768;2023-05-21T06:29:11;16.46;78.65
69543;SHT31;56762;49.494;11.768;2023-05-21T06:31:42;16.50;78.05
69543;SHT31;56762;49.494;11.768;2023-05-21T06:34:10;16.58;78.28
69543;SHT31;56762;49.494;11.768;2023-05-21T06:36:39;16.68;78.03
69543;SHT31;56762;49.494;11.768;2023-05-21T06:39:07;16.72;77.92
69543;SHT31;56762;49.494;11.768;2023-05-21T06:41:35;16.74;77.51
69543;SHT31;56762;49.494;11.768;2023-05-21T06:44:03;16.81;77.48
69543;SHT31;56762;49.494;11.768;2023-05-21T06:46:32;16.87;76.82
69543;SHT31;56762;49.494;11.768;2023-05-21T06:49:02;16.95;76.48
69543;SHT31;56762;49.494;11.768;2023-05-21T06:51:32;16.91;76.46
69543;SHT31;56762;49.494;11.768;2023-05-21T06:54:00;16.98;76.35
69543;SHT31;56762;49.494;11.768;2023-05-21T06:56:35;16.99;75.82
69543;SHT31;56762;49.494;11.768;2023-05-21T06:59:09;17.02;75.64
69543;SHT31;56762;49.494;11.768;2023-05-21T07:01:37;17.01;76.45
69543;SHT31;56762;49.494;11.768;2023-05-21T07:04:11;17.11;76.20
69543;SHT31;56762;49.494;11.768;2023-05-21T07:06:39;17.08;75.59
69543;SHT31;56762;49.494;11.768;2023-05-21T07:09:07;17.22;75.77
69543;SHT31;56762;49.494;11.768;2023-05-21T07:11:35;17.29;75.84
69543;SHT31;56762;49.494;11.768;2023-05-21T07:14:04;17.33;75.78
69543;SHT31;56762;49.494;11.768;2023-05-21T07:16:32;17.38;75.87
69543;SHT31;56762;49.494;11.768;2023-05-21T07:19:00;17.45;75.09
69543;SHT31;56762;49.494;11.768;2023-05-21T07:21:30;17.47;74.87
69543;SHT31;56762;49.494;11.768;2023-05-21T07:23:58;17.51;75.11
69543;SHT31;56762;49.494;11.768;2023-05-21T07:26:26;17.65;74.79
69543;SHT31;56762;49.494;11.768;2023-05-21T07:28:54;17.66;74.27
69543;SHT31;56762;49.494;11.768;2023-05-21T07:31:25;17.73;74.64
69543;SHT31;56762;49.494;11.768;2023-05-21T07:33:53;17.86;73.63
69543;SHT31;56762;49.494;11.768;2023-05-21T07:36:21;17.93;74.22
69543;SHT31;56762;49.494;11.768;2023-05-21T07:38:51;18.04;73.09
69543;SHT31;56762;49.494;11.768;2023-05-21T07:41:19;18.11;73.63
69543;SHT31;56762;49.494;11.768;2023-05-21T07:43:47;18.27;72.64
69543;SHT31;56762;49.494;11.768;2023-05-21T07:46:16;18.37;73.05
69543;SHT31;56762;49.494;11.768;2023-05-21T07:48:44;18.45;73.08
69543;SHT31;56762;49.494;11.768;2023-05-21T07:51:14;18.65;71.48
69543;SHT31;56762;49.494;11.768;2023-05-21T07:53:42;18.95;68.92
69543;SHT31;56762;49.494;11.768;2023-05-21T07:56:11;19.02;69.31
69543;SHT31;56762;49.494;11.768;2023-05-21T07:58:39;19.10;69.89
69543;SHT31;56762;49.494;11.768;2023-05-21T08:01:09;19.23;69.01
69543;SHT31;56762;49.494;11.768;2023-05-21T08:03:37;19.32;68.83
69543;SHT31;56762;49.494;11.768;2023-05-21T08:06:06;19.46;69.11
69543;SHT31;56762;49.494;11.768;2023-05-21T08:08:34;19.51;67.63
69543;SHT31;56762;49.494;11.768;2023-05-21T08:11:01;19.60;68.56
69543;SHT31;56762;49.494;11.768;2023-05-21T08:13:31;19.71;68.93
69543;SHT31;56762;49.494;11.768;2023-05-21T08:15:59;19.81;67.34
69543;SHT31;56762;49.494;11.768;2023-05-21T08:18:27;19.82;66.23
69543;SHT31;56762;49.494;11.768;2023-05-21T08:20:55;19.78;65.35
69543;SHT31;56762;49.494;11.768;2023-05-21T08:23:23;19.88;65.92
69543;SHT31;56762;49.494;11.768;2023-05-21T08:25:53;19.96;64.39
69543;SHT31;56762;49.494;11.768;2023-05-21T08:28:22;19.98;65.06
69543;SHT31;56762;49.494;11.768;2023-05-21T08:30:51;20.00;65.46
69543;SHT31;56762;49.494;11.768;2023-05-21T08:33:19;20.04;63.98
69543;SHT31;56762;49.494;11.768;2023-05-21T08:35:47;20.00;64.81
69543;SHT31;56762;49.494;11.768;2023-05-21T08:38:15;19.92;64.62
69543;SHT31;56762;49.494;11.768;2023-05-21T08:40:45;19.93;64.16
69543;SHT31;56762;49.494;11.768;2023-05-21T08:43:13;19.91;65.15
69543;SHT31;56762;49.494;11.768;2023-05-21T08:45:44;19.91;65.27
69543;SHT31;56762;49.494;11.768;2023-05-21T08:48:15;19.88;65.09
69543;SHT31;56762;49.494;11.768;2023-05-21T08:50:45;19.86;64.02
69543;SHT31;56762;49.494;11.768;2023-05-21T08:53:13;19.75;64.27
69543;SHT31;56762;49.494;11.768;2023-05-21T08:55:54;19.77;65.17
69543;SHT31;56762;49.494;11.768;2023-05-21T08:58:23;19.79;65.10
69543;SHT31;56762;49.494;11.768;2023-05-21T09:00:54;19.75;66.69
69543;SHT31;56762;49.494;11.768;2023-05-21T09:03:24;19.74;68.31
69543;SHT31;56762;49.494;11.768;2023-05-21T09:05:53;19.71;67.17
69543;SHT31;56762;49.494;11.768;2023-05-21T09:08:26;19.75;67.56
69543;SHT31;56762;49.494;11.768;2023-05-21T09:10:56;19.78;68.07
69543;SHT31;56762;49.494;11.768;2023-05-21T09:13:25;19.77;67.81
69543;SHT31;56762;49.494;11.768;2023-05-21T09:15:53;19.77;67.24
69543;SHT31;56762;49.494;11.768;2023-05-21T09:18:23;19.75;67.91
69543;SHT31;56762;49.494;11.768;2023-05-21T09:20:53;19.78;67.44
69543;SHT31;56762;49.494;11.768;2023-05-21T09:23:22;19.77;67.10
69543;SHT31;56762;49.494;11.768;2023-05-21T09:25:50;19.77;67.75
69543;SHT31;56762;49.494;11.768;2023-05-21T09:28:18;19.78;68.21
69543;SHT31;56762;49.494;11.768;2023-05-21T09:30:47;19.82;67.26
69543;SHT31;56762;49.494;11.768;2023-05-21T09:33:25;19.89;64.23
69543;SHT31;56762;49.494;11.768;2023-05-21T09:35:55;19.91;63.18
69543;SHT31;56762;49.494;11.768;2023-05-21T09:38:24;19.96;62.99
69543;SHT31;56762;49.494;11.768;2023-05-21T09:40:54;20.02;62.42
69543;SHT31;56762;49.494;11.768;2023-05-21T09:43:22;20.04;63.31
69543;SHT31;56762;49.494;11.768;2023-05-21T09:45:51;20.15;61.97
69543;SHT31;56762;49.494;11.768;2023-05-21T09:48:33;20.08;62.37
69543;SHT31;56762;49.494;11.768;2023-05-21T09:51:07;20.16;60.97
69543;SHT31;56762;49.494;11.768;2023-05-21T09:53:36;20.28;65.32
69543;SHT31;56762;49.494;11.768;2023-05-21T09:56:09;20.23;62.57
69543;SHT31;56762;49.494;11.768;2023-05-21T09:58:37;20.29;61.01
69543;SHT31;56762;49.494;11.768;2023-05-21T10:01:06;20.28;60.89
69543;SHT31;56762;49.494;11.768;2023-05-21T10:03:38;20.37;60.83
69543;SHT31;56762;49.494;11.768;2023-05-21T10:06:07;20.44;58.88
69543;SHT31;56762;49.494;11.768;2023-05-21T10:08:42;20.41;60.17
69543;SHT31;56762;49.494;11.768;2023-05-21T10:11:12;20.41;62.11
69543;SHT31;56762;49.494;11.768;2023-05-21T10:13:46;20.54;62.88
69543;SHT31;56762;49.494;11.768;2023-05-21T10:16:16;20.54;64.19
69543;SHT31;56762;49.494;11.768;2023-05-21T10:18:49;20.50;64.78
69543;SHT31;56762;49.494;11.768;2023-05-21T10:21:20;20.61;65.74
69543;SHT31;56762;49.494;11.768;2023-05-21T10:23:49;20.81;60.00
69543;SHT31;56762;49.494;11.768;2023-05-21T10:26:18;20.76;62.04
69543;SHT31;56762;49.494;11.768;2023-05-21T10:28:47;20.79;61.43
69543;SHT31;56762;49.494;11.768;2023-05-21T10:31:17;20.90;59.91
69543;SHT31;56762;49.494;11.768;2023-05-21T10:33:49;20.95;57.53
69543;SHT31;56762;49.494;11.768;2023-05-21T10:36:19;21.05;56.00
69543;SHT31;56762;49.494;11.768;2023-05-21T10:38:47;20.97;58.61
69543;SHT31;56762;49.494;11.768;2023-05-21T10:41:17;21.01;54.28
69543;SHT31;56762;49.494;11.768;2023-05-21T10:43:53;21.12;55.06
69543;SHT31;56762;49.494;11.768;2023-05-21T10:46:40;21.24;53.35
69543;SHT31;56762;49.494;11.768;2023-05-21T10:49:22;21.29;53.35
69543;SHT31;56762;49.494;11.768;2023-05-21T10:52:02;21.31;52.27
69543;SHT31;56762;49.494;11.768;2023-05-21T10:54:51;21.19;54.28
69543;SHT31;56762;49.494;11.768;2023-05-21T10:57:39;21.19;54.47
69543;SHT31;56762;49.494;11.768;2023-05-21T11:00:14;21.25;53.73
69543;SHT31;56762;49.494;11.768;2023-05-21T11:02:44;21.32;53.38
69543;SHT31;56762;49.494;11.768;2023-05-21T11:05:14;21.31;54.04
69543;SHT31;56762;49.494;11.768;2023-05-21T11:07:52;21.18;53.17
69543;SHT31;56762;49.494;11.768;2023-05-21T11:10:30;21.45;51.23
69543;SHT31;56762;49.494;11.768;2023-05-21T11:13:11;21.41;55.07
69543;SHT31;56762;49.494;11.768;2023-05-21T11:16:13;21.38;53.72
69543;SHT31;56762;49.494;11.768;2023-05-21T11:19:00;21.46;51.67
69543;SHT31;56762;49.494;11.768;2023-05-21T11:21:33;21.39;52.77
69543;SHT31;56762;49.494;11.768;2023-05-21T11:24:05;21.38;53.91
69543;SHT31;56762;49.494;11.768;2023-05-21T11:27:01;21.50;53.35
69543;SHT31;56762;49.494;11.768;2023-05-21T11:29:51;21.63;51.97
69543;SHT31;56762;49.494;11.768;2023-05-21T11:32:22;21.76;51.51
69543;SHT31;56762;49.494;11.768;2023-05-21T11:34:50;21.60;53.17
69543;SHT31;56762;49.494;11.768;2023-05-21T11:37:37;21.63;52.57
69543;SHT31;56762;49.494;11.768;2023-05-21T11:40:23;21.83;54.21
69543;SHT31;56762;49.494;11.768;2023-05-21T11:42:54;21.69;55.55
69543;SHT31;56762;49.494;11.768;2023-05-21T11:45:26;21.69;53.49
69543;SHT31;56762;49.494;11.768;2023-05-21T11:47:56;21.79;51.83
69543;SHT31;56762;49.494;11.768;2023-05-21T11:50:24;21.75;53.38
69543;SHT31;56762;49.494;11.768;2023-05-21T11:52:54;21.67;54.29
69543;SHT31;56762;49.494;11.768;2023-05-21T11:55:25;21.73;52.78
69543;SHT31;56762;49.494;11.768;2023-05-21T11:57:53;21.73;52.47
69543;SHT31;56762;49.494;11.768;2023-05-21T12:00:21;21.76;52.48
69543;SHT31;56762;49.494;11.768;2023-05-21T12:02:51;21.79;52.28
69543;SHT31;56762;49.494;11.768;2023-05-21T12:05:22;21.76;53.67
69543;SHT31;56762;49.494;11.768;2023-05-21T12:07:51;21.73;52.54
69543;SHT31;56762;49.494;11.768;2023-05-21T12:10:26;21.79;52.14
69543;SHT31;56762;49.494;11.768;2023-05-21T12:12:55;21.88;53.17
69543;SHT31;56762;49.494;11.768;2023-05-21T12:15:26;21.92;53.30
69543;SHT31;56762;49.494;11.768;2023-05-21T12:17:55;21.96;51.03
69543;SHT31;56762;49.494;11.768;2023-05-21T12:20:25;22.09;52.02
69543;SHT31;56762;49.494;11.768;2023-05-21T12:22:56;22.17;50.78
69543;SHT31;56762;49.494;11.768;2023-05-21T12:25:28;22.10;52.53
69543;SHT31;56762;49.494;11.768;2023-05-21T12:27:57;21.99;53.09
69543;SHT31;56762;49.494;11.768;2023-05-21T12:30:27;21.96;53.22
69543;SHT31;56762;49.494;11.768;2023-05-21T12:32:58;21.96;52.07
69543;SHT31;56762;49.494;11.768;2023-05-21T12:35:29;22.07;51.58
69543;SHT31;56762;49.494;11.768;2023-05-21T12:37:59;22.04;52.66
69543;SHT31;56762;49.494;11.768;2023-05-21T12:40:36;22.07;54.45
69543;SHT31;56762;49.494;11.768;2023-05-21T12:43:05;22.00;53.35
69543;SHT31;56762;49.494;11.768;2023-05-21T12:45:34;22.01;53.08
69543;SHT31;56762;49.494;11.768;2023-05-21T12:48:05;21.96;53.11
69543;SHT31;56762;49.494;11.768;2023-05-21T12:50:33;21.99;53.62
69543;SHT31;56762;49.494;11.768;2023-05-21T12:53:02;22.09;54.33
69543;SHT31;56762;49.494;11.768;2023-05-21T12:55:30;22.21;54.45
69543;SHT31;56762;49.494;11.768;2023-05-21T12:58:05;22.27;51.87
69543;SHT31;56762;49.494;11.768;2023-05-21T13:00:35;22.22;52.13
69543;SHT31;56762;49.494;11.768;2023-05-21T13:03:06;22.18;51.34
69543;SHT31;56762;49.494;11.768;2023-05-21T13:05:34;22.11;53.67
69543;SHT31;56762;49.494;11.768;2023-05-21T13:08:02;22.24;52.28
69543;SHT31;56762;49.494;11.768;2023-05-21T13:10:29;22.41;52.46
69543;SHT31;56762;49.494;11.768;2023-05-21T13:12:58;22.24;51.33
69543;SHT31;56762;49.494;11.768;2023-05-21T13:15:28;22.36;50.57
69543;SHT31;56762;49.494;11.768;2023-05-21T13:17:57;22.33;52.17
69543;SHT31;56762;49.494;11.768;2023-05-21T13:20:30;22.37;51.82
69543;SHT31;56762;49.494;11.768;2023-05-21T13:22:58;22.30;52.92
69543;SHT31;56762;49.494;11.768;2023-05-21T13:25:31;22.21;52.46
69543;SHT31;56762;49.494;11.768;2023-05-21T13:28:01;22.16;51.96
69543;SHT31;56762;49.494;11.768;2023-05-21T13:30:33;22.22;51.46
69543;SHT31;56762;49.494;11.768;2023-05-21T13:33:04;22.16;51.37
69543;SHT31;56762;49.494;11.768;2023-05-21T13:35:33;22.17;51.70
69543;SHT31;56762;49.494;11.768;2023-05-21T13:38:01;22.16;52.81
69543;SHT31;56762;49.494;11.768;2023-05-21T13:40:29;22.09;50.53
69543;SHT31;56762;49.494;11.768;2023-05-21T13:42:58;22.21;51.11
69543;SHT31;56762;49.494;11.768;2023-05-21T13:45:26;22.13;52.70
69543;SHT31;56762;49.494;11.768;2023-05-21T13:47:58;22.09;53.56
69543;SHT31;56762;49.494;11.768;2023-05-21T13:50:27;22.27;53.91
69543;SHT31;56762;49.494;11.768;2023-05-21T13:52:54;22.18;53.03
69543;SHT31;56762;49.494;11.768;2023-05-21T13:55:24;22.20;54.81
69543;SHT31;56762;49.494;11.768;2023-05-21T13:57:55;22.34;52.47
69543;SHT31;56762;49.494;11.768;2023-05-21T14:00:24;22.25;51.97
69543;SHT31;56762;49.494;11.768;2023-05-21T14:02:51;22.18;52.81
69543;SHT31;56762;49.494;11.768;2023-05-21T14:05:22;22.22;54.31
69543;SHT31;56762;49.494;11.768;2023-05-21T14:07:50;22.16;53.15
69543;SHT31;56762;49.494;11.768;2023-05-21T14:10:20;22.27;53.23
69543;SHT31;56762;49.494;11.768;2023-05-21T14:12:52;22.41;50.94
69543;SHT31;56762;49.494;11.768;2023-05-21T14:15:37;22.45;52.13
69543;SHT31;56762;49.494;11.768;2023-05-21T14:18:08;22.40;51.39
69543;SHT31;56762;49.494;11.768;2023-05-21T14:20:39;22.48;51.57
69543;SHT31;56762;49.494;11.768;2023-05-21T14:23:07;22.45;51.93
69543;SHT31;56762;49.494;11.768;2023-05-21T14:25:37;22.44;50.40
69543;SHT31;56762;49.494;11.768;2023-05-21T14:28:04;22.48;51.78
69543;SHT31;56762;49.494;11.768;2023-05-21T14:30:32;22.51;51.63
69543;SHT31;56762;49.494;11.768;2023-05-21T14:33:01;22.48;52.81
69543;SHT31;56762;49.494;11.768;2023-05-21T14:35:29;22.55;49.45
69543;SHT31;56762;49.494;11.768;2023-05-21T14:37:58;22.61;48.70
69543;SHT31;56762;49.494;11.768;2023-05-21T14:40:26;22.69;49.59
69543;SHT31;56762;49.494;11.768;2023-05-21T14:42:55;22.65;49.74
69543;SHT31;56762;49.494;11.768;2023-05-21T14:45:23;22.64;50.38
69543;SHT31;56762;49.494;11.768;2023-05-21T14:47:51;22.58;50.58
69543;SHT31;56762;49.494;11.768;2023-05-21T14:50:21;22.48;51.29
69543;SHT31;56762;49.494;11.768;2023-05-21T14:52:50;22.41;50.78
69543;SHT31;56762;49.494;11.768;2023-05-21T14:55:19;22.41;50.69
69543;SHT31;56762;49.494;11.768;2023-05-21T14:57:47;22.43;52.42
69543;SHT31;56762;49.494;11.768;2023-05-21T15:00:16;22.37;51.96
69543;SHT31;56762;49.494;11.768;2023-05-21T15:02:43;22.30;51.71
69543;SHT31;56762;49.494;11.768;2023-05-21T15:05:12;22.24;51.87
69543;SHT31;56762;49.494;11.768;2023-05-21T15:07:40;22.14;52.99
69543;SHT31;56762;49.494;11.768;2023-05-21T15:10:09;22.14;51.45
69543;SHT31;56762;49.494;11.768;2023-05-21T15:12:39;22.09;52.43
69543;SHT31;56762;49.494;11.768;2023-05-21T15:15:10;22.09;51.14
69543;SHT31;56762;49.494;11.768;2023-05-21T15:17:38;22.03;51.45
69543;SHT31;56762;49.494;11.768;2023-05-21T15:20:08;21.96;51.19
69543;SHT31;56762;49.494;11.768;2023-05-21T15:22:40;21.96;50.92
69543;SHT31;56762;49.494;11.768;2023-05-21T15:25:09;21.90;51.26
69543;SHT31;56762;49.494;11.768;2023-05-21T15:27:38;21.88;52.54
69543;SHT31;56762;49.494;11.768;2023-05-21T15:30:06;21.89;54.57
69543;SHT31;56762;49.494;11.768;2023-05-21T15:32:35;21.89;54.90